LYBE METAR and TAF weather

Enter ICAO airport designator

Example: see airport list

Station Type Date Time Source
LYBE METAR 2016/07/28 12:00 UTC NOAA

LYBE 281200Z 33008KT 300V010 9999 TS FEW030CB 31/19 Q1014 NOSIG

Station Type Date Time Source
LYBE Decoded METAR 2016/07/28 12:00 UTC NOAA

Beograd / Surcin, Serbia and Montenegro (LYBE) 44-49N 020-17E 99M
Jul 28, 2016 - 08:00 AM EDT / 2016.07.28 1200 UTC
Wind: from the NNW (330 degrees) at 9 MPH (8 KT) (direction variable):0
Visibility: greater than 7 mile(s):0
Sky conditions: mostly clear
Weather: thunder; Cumulonimbus clouds observed
Temperature: 87 F (31 C)
Dew Point: 66 F (19 C)
Relative Humidity: 48%
Pressure (altimeter): 29.94 in. Hg (1014 hPa)
ob: LYBE 281200Z 33008KT 300V010 9999 TS FEW030CB 31/19 Q1014 NOSIG
cycle: 12

Station Type Date Time Source
LYBE TAF 2016/07/28 12:21 UTC NOAA

TAF TAF LYBE 281100Z 2812/2912 28009KT CAVOK TX33/2912Z TN17/2903Z
TEMPO 2812/2819 VRB15G25KT 4000 TSRA SCT030CB SCT040
TEMPO 2819/2901 5000 SHRA SCT030TCU BKN033